sensor_id;sensor_type;location;lat;lon;timestamp;P1;durP1;ratioP1;P2;durP2;ratioP2
40288;SDS011;28991;52.028;5.526;2024-01-06T00:00:16;0.52;;;0.50;;
40288;SDS011;28991;52.028;5.526;2024-01-06T00:02:41;0.57;;;0.50;;
40288;SDS011;28991;52.028;5.526;2024-01-06T00:05:07;0.50;;;0.40;;
40288;SDS011;28991;52.028;5.526;2024-01-06T00:07:33;0.55;;;0.50;;
40288;SDS011;28991;52.028;5.526;2024-01-06T00:09:58;0.40;;;0.40;;
40288;SDS011;28991;52.028;5.526;2024-01-06T00:12:24;0.40;;;0.40;;
40288;SDS011;28991;52.028;5.526;2024-01-06T00:14:49;0.50;;;0.50;;
40288;SDS011;28991;52.028;5.526;2024-01-06T00:17:15;0.40;;;0.40;;
40288;SDS011;28991;52.028;5.526;2024-01-06T00:19:41;0.32;;;0.32;;
40288;SDS011;28991;52.028;5.526;2024-01-06T00:22:07;0.40;;;0.40;;
40288;SDS011;28991;52.028;5.526;2024-01-06T00:24:33;0.52;;;0.52;;
40288;SDS011;28991;52.028;5.526;2024-01-06T00:26:59;0.50;;;0.40;;
40288;SDS011;28991;52.028;5.526;2024-01-06T00:29:24;0.35;;;0.35;;
40288;SDS011;28991;52.028;5.526;2024-01-06T00:31:50;0.40;;;0.40;;
40288;SDS011;28991;52.028;5.526;2024-01-06T00:34:16;0.50;;;0.40;;
40288;SDS011;28991;52.028;5.526;2024-01-06T00:36:41;0.40;;;0.40;;
40288;SDS011;28991;52.028;5.526;2024-01-06T00:39:08;0.30;;;0.30;;
40288;SDS011;28991;52.028;5.526;2024-01-06T00:41:34;0.40;;;0.40;;
40288;SDS011;28991;52.028;5.526;2024-01-06T00:43:59;0.32;;;0.32;;
40288;SDS011;28991;52.028;5.526;2024-01-06T00:46:25;0.50;;;0.50;;
40288;SDS011;28991;52.028;5.526;2024-01-06T00:48:50;0.57;;;0.57;;
40288;SDS011;28991;52.028;5.526;2024-01-06T00:51:16;0.43;;;0.43;;
40288;SDS011;28991;52.028;5.526;2024-01-06T00:53:41;0.55;;;0.55;;
40288;SDS011;28991;52.028;5.526;2024-01-06T00:56:07;0.40;;;0.40;;
40288;SDS011;28991;52.028;5.526;2024-01-06T00:58:33;0.40;;;0.40;;
40288;SDS011;28991;52.028;5.526;2024-01-06T01:00:58;0.60;;;0.50;;
40288;SDS011;28991;52.028;5.526;2024-01-06T01:03:24;0.50;;;0.50;;
40288;SDS011;28991;52.028;5.526;2024-01-06T01:05:49;0.82;;;0.50;;
40288;SDS011;28991;52.028;5.526;2024-01-06T01:08:15;0.40;;;0.40;;
40288;SDS011;28991;52.028;5.526;2024-01-06T01:10:40;0.40;;;0.40;;
40288;SDS011;28991;52.028;5.526;2024-01-06T01:13:06;0.55;;;0.40;;
40288;SDS011;28991;52.028;5.526;2024-01-06T01:15:31;0.47;;;0.45;;
40288;SDS011;28991;52.028;5.526;2024-01-06T01:17:57;0.60;;;0.60;;
40288;SDS011;28991;52.028;5.526;2024-01-06T01:20:23;0.45;;;0.45;;
40288;SDS011;28991;52.028;5.526;2024-01-06T01:22:48;0.30;;;0.30;;
40288;SDS011;28991;52.028;5.526;2024-01-06T01:25:14;0.73;;;0.70;;
40288;SDS011;28991;52.028;5.526;2024-01-06T01:27:39;0.60;;;0.60;;
40288;SDS011;28991;52.028;5.526;2024-01-06T01:30:05;0.50;;;0.50;;
40288;SDS011;28991;52.028;5.526;2024-01-06T01:32:31;0.40;;;0.40;;
40288;SDS011;28991;52.028;5.526;2024-01-06T01:34:57;1.08;;;0.50;;
40288;SDS011;28991;52.028;5.526;2024-01-06T01:37:23;0.60;;;0.50;;
40288;SDS011;28991;52.028;5.526;2024-01-06T01:39:48;1.45;;;0.40;;
40288;SDS011;28991;52.028;5.526;2024-01-06T01:42:14;0.52;;;0.50;;
40288;SDS011;28991;52.028;5.526;2024-01-06T01:44:39;0.50;;;0.50;;
40288;SDS011;28991;52.028;5.526;2024-01-06T01:47:05;0.40;;;0.40;;
40288;SDS011;28991;52.028;5.526;2024-01-06T01:49:31;0.30;;;0.30;;
40288;SDS011;28991;52.028;5.526;2024-01-06T01:51:57;0.40;;;0.40;;
40288;SDS011;28991;52.028;5.526;2024-01-06T01:54:23;0.32;;;0.32;;
40288;SDS011;28991;52.028;5.526;2024-01-06T01:56:49;0.40;;;0.40;;
40288;SDS011;28991;52.028;5.526;2024-01-06T01:59:15;0.30;;;0.30;;
40288;SDS011;28991;52.028;5.526;2024-01-06T02:01:43;0.50;;;0.50;;
40288;SDS011;28991;52.028;5.526;2024-01-06T02:04:09;0.63;;;0.55;;
40288;SDS011;28991;52.028;5.526;2024-01-06T02:06:35;0.30;;;0.30;;
40288;SDS011;28991;52.028;5.526;2024-01-06T02:09:01;0.75;;;0.60;;
40288;SDS011;28991;52.028;5.526;2024-01-06T02:11:27;0.43;;;0.43;;
40288;SDS011;28991;52.028;5.526;2024-01-06T02:13:52;0.50;;;0.50;;
40288;SDS011;28991;52.028;5.526;2024-01-06T02:16:18;0.60;;;0.60;;
40288;SDS011;28991;52.028;5.526;2024-01-06T02:18:43;0.40;;;0.40;;
40288;SDS011;28991;52.028;5.526;2024-01-06T02:21:09;0.52;;;0.50;;
40288;SDS011;28991;52.028;5.526;2024-01-06T02:23:35;0.40;;;0.40;;
40288;SDS011;28991;52.028;5.526;2024-01-06T02:26:02;0.40;;;0.40;;
40288;SDS011;28991;52.028;5.526;2024-01-06T02:28:27;0.40;;;0.40;;
40288;SDS011;28991;52.028;5.526;2024-01-06T02:30:53;0.47;;;0.47;;
40288;SDS011;28991;52.028;5.526;2024-01-06T02:33:19;0.47;;;0.47;;
40288;SDS011;28991;52.028;5.526;2024-01-06T02:35:47;0.30;;;0.30;;
40288;SDS011;28991;52.028;5.526;2024-01-06T02:38:13;0.43;;;0.43;;
40288;SDS011;28991;52.028;5.526;2024-01-06T02:40:38;0.30;;;0.30;;
40288;SDS011;28991;52.028;5.526;2024-01-06T02:43:04;0.45;;;0.45;;
40288;SDS011;28991;52.028;5.526;2024-01-06T02:45:30;0.65;;;0.43;;
40288;SDS011;28991;52.028;5.526;2024-01-06T02:47:55;0.52;;;0.50;;
40288;SDS011;28991;52.028;5.526;2024-01-06T02:50:21;0.40;;;0.40;;
40288;SDS011;28991;52.028;5.526;2024-01-06T02:52:47;0.50;;;0.47;;
40288;SDS011;28991;52.028;5.526;2024-01-06T02:55:12;0.40;;;0.40;;
40288;SDS011;28991;52.028;5.526;2024-01-06T02:57:38;0.57;;;0.40;;
40288;SDS011;28991;52.028;5.526;2024-01-06T03:00:04;0.50;;;0.50;;
40288;SDS011;28991;52.028;5.526;2024-01-06T03:02:31;0.52;;;0.40;;
40288;SDS011;28991;52.028;5.526;2024-01-06T03:04:58;0.60;;;0.60;;
40288;SDS011;28991;52.028;5.526;2024-01-06T03:07:23;0.60;;;0.40;;
40288;SDS011;28991;52.028;5.526;2024-01-06T03:09:49;0.43;;;0.43;;
40288;SDS011;28991;52.028;5.526;2024-01-06T03:12:14;0.57;;;0.57;;
40288;SDS011;28991;52.028;5.526;2024-01-06T03:14:40;0.40;;;0.40;;
40288;SDS011;28991;52.028;5.526;2024-01-06T03:17:05;0.47;;;0.47;;
40288;SDS011;28991;52.028;5.526;2024-01-06T03:19:31;0.50;;;0.40;;
40288;SDS011;28991;52.028;5.526;2024-01-06T03:21:57;0.47;;;0.47;;
40288;SDS011;28991;52.028;5.526;2024-01-06T03:24:23;0.30;;;0.30;;
40288;SDS011;28991;52.028;5.526;2024-01-06T03:26:50;0.40;;;0.40;;
40288;SDS011;28991;52.028;5.526;2024-01-06T03:29:16;0.47;;;0.47;;
40288;SDS011;28991;52.028;5.526;2024-01-06T03:31:42;0.32;;;0.32;;
40288;SDS011;28991;52.028;5.526;2024-01-06T03:34:12;0.40;;;0.40;;
40288;SDS011;28991;52.028;5.526;2024-01-06T03:36:38;0.45;;;0.45;;
40288;SDS011;28991;52.028;5.526;2024-01-06T03:39:04;0.38;;;0.38;;
40288;SDS011;28991;52.028;5.526;2024-01-06T03:41:30;0.40;;;0.40;;
40288;SDS011;28991;52.028;5.526;2024-01-06T03:43:55;0.30;;;0.30;;
40288;SDS011;28991;52.028;5.526;2024-01-06T03:46:24;0.40;;;0.40;;
40288;SDS011;28991;52.028;5.526;2024-01-06T03:48:49;0.50;;;0.50;;
40288;SDS011;28991;52.028;5.526;2024-01-06T03:51:15;0.30;;;0.30;;
40288;SDS011;28991;52.028;5.526;2024-01-06T03:53:41;0.50;;;0.50;;
40288;SDS011;28991;52.028;5.526;2024-01-06T03:56:06;0.35;;;0.35;;
40288;SDS011;28991;52.028;5.526;2024-01-06T03:58:32;0.40;;;0.40;;
40288;SDS011;28991;52.028;5.526;2024-01-06T04:00:58;0.30;;;0.30;;
40288;SDS011;28991;52.028;5.526;2024-01-06T04:03:24;0.55;;;0.50;;
40288;SDS011;28991;52.028;5.526;2024-01-06T04:05:49;0.30;;;0.30;;
40288;SDS011;28991;52.028;5.526;2024-01-06T04:08:15;0.43;;;0.43;;
40288;SDS011;28991;52.028;5.526;2024-01-06T04:10:40;0.40;;;0.40;;
40288;SDS011;28991;52.028;5.526;2024-01-06T04:13:06;0.45;;;0.45;;
40288;SDS011;28991;52.028;5.526;2024-01-06T04:15:32;0.30;;;0.30;;
40288;SDS011;28991;52.028;5.526;2024-01-06T04:18:01;0.52;;;0.50;;
40288;SDS011;28991;52.028;5.526;2024-01-06T04:20:28;0.40;;;0.40;;
40288;SDS011;28991;52.028;5.526;2024-01-06T04:22:53;0.30;;;0.30;;
40288;SDS011;28991;52.028;5.526;2024-01-06T04:25:19;0.35;;;0.35;;
40288;SDS011;28991;52.028;5.526;2024-01-06T04:27:44;0.40;;;0.40;;
40288;SDS011;28991;52.028;5.526;2024-01-06T04:30:12;0.50;;;0.50;;
40288;SDS011;28991;52.028;5.526;2024-01-06T04:32:38;0.40;;;0.40;;
40288;SDS011;28991;52.028;5.526;2024-01-06T04:35:04;0.50;;;0.50;;
40288;SDS011;28991;52.028;5.526;2024-01-06T04:37:30;0.30;;;0.30;;
40288;SDS011;28991;52.028;5.526;2024-01-06T04:39:55;0.68;;;0.40;;
40288;SDS011;28991;52.028;5.526;2024-01-06T04:42:21;0.50;;;0.50;;
40288;SDS011;28991;52.028;5.526;2024-01-06T04:44:47;0.45;;;0.40;;
40288;SDS011;28991;52.028;5.526;2024-01-06T04:47:13;0.40;;;0.40;;
40288;SDS011;28991;52.028;5.526;2024-01-06T04:49:39;0.50;;;0.50;;
40288;SDS011;28991;52.028;5.526;2024-01-06T04:52:05;0.50;;;0.50;;
40288;SDS011;28991;52.028;5.526;2024-01-06T04:54:31;0.40;;;0.40;;
40288;SDS011;28991;52.028;5.526;2024-01-06T04:56:57;0.40;;;0.40;;
40288;SDS011;28991;52.028;5.526;2024-01-06T04:59:23;0.43;;;0.43;;
40288;SDS011;28991;52.028;5.526;2024-01-06T05:01:49;0.63;;;0.40;;
40288;SDS011;28991;52.028;5.526;2024-01-06T05:04:16;0.30;;;0.30;;
40288;SDS011;28991;52.028;5.526;2024-01-06T05:06:42;0.57;;;0.57;;
40288;SDS011;28991;52.028;5.526;2024-01-06T05:09:08;0.40;;;0.40;;
40288;SDS011;28991;52.028;5.526;2024-01-06T05:11:33;0.55;;;0.38;;
40288;SDS011;28991;52.028;5.526;2024-01-06T05:13:59;1.08;;;0.55;;
40288;SDS011;28991;52.028;5.526;2024-01-06T05:16:25;0.30;;;0.30;;
40288;SDS011;28991;52.028;5.526;2024-01-06T05:18:50;0.50;;;0.50;;
40288;SDS011;28991;52.028;5.526;2024-01-06T05:21:16;0.30;;;0.30;;
40288;SDS011;28991;52.028;5.526;2024-01-06T05:23:42;0.50;;;0.40;;
40288;SDS011;28991;52.028;5.526;2024-01-06T05:26:08;0.73;;;0.35;;
40288;SDS011;28991;52.028;5.526;2024-01-06T05:28:34;0.50;;;0.50;;
40288;SDS011;28991;52.028;5.526;2024-01-06T05:30:59;0.52;;;0.52;;
40288;SDS011;28991;52.028;5.526;2024-01-06T05:33:25;0.50;;;0.50;;
40288;SDS011;28991;52.028;5.526;2024-01-06T05:35:50;0.30;;;0.30;;
40288;SDS011;28991;52.028;5.526;2024-01-06T05:38:16;0.40;;;0.40;;
40288;SDS011;28991;52.028;5.526;2024-01-06T05:40:42;0.40;;;0.40;;
40288;SDS011;28991;52.028;5.526;2024-01-06T05:43:07;0.40;;;0.40;;
40288;SDS011;28991;52.028;5.526;2024-01-06T05:45:33;0.50;;;0.43;;
40288;SDS011;28991;52.028;5.526;2024-01-06T05:47:59;0.43;;;0.43;;
40288;SDS011;28991;52.028;5.526;2024-01-06T05:50:25;0.40;;;0.40;;
40288;SDS011;28991;52.028;5.526;2024-01-06T05:52:50;0.30;;;0.30;;
40288;SDS011;28991;52.028;5.526;2024-01-06T05:55:17;0.40;;;0.40;;
40288;SDS011;28991;52.028;5.526;2024-01-06T05:57:42;0.30;;;0.30;;
40288;SDS011;28991;52.028;5.526;2024-01-06T06:00:08;0.40;;;0.40;;
40288;SDS011;28991;52.028;5.526;2024-01-06T06:02:36;0.43;;;0.43;;
40288;SDS011;28991;52.028;5.526;2024-01-06T06:05:01;0.52;;;0.50;;
40288;SDS011;28991;52.028;5.526;2024-01-06T06:07:27;0.40;;;0.40;;
40288;SDS011;28991;52.028;5.526;2024-01-06T06:09:53;0.40;;;0.40;;
40288;SDS011;28991;52.028;5.526;2024-01-06T06:12:19;0.40;;;0.40;;
40288;SDS011;28991;52.028;5.526;2024-01-06T06:14:44;0.40;;;0.40;;
40288;SDS011;28991;52.028;5.526;2024-01-06T06:17:10;0.55;;;0.55;;
40288;SDS011;28991;52.028;5.526;2024-01-06T06:19:35;0.40;;;0.40;;
40288;SDS011;28991;52.028;5.526;2024-01-06T06:22:01;0.50;;;0.50;;
40288;SDS011;28991;52.028;5.526;2024-01-06T06:24:26;0.98;;;0.63;;
40288;SDS011;28991;52.028;5.526;2024-01-06T06:26:52;0.60;;;0.60;;
40288;SDS011;28991;52.028;5.526;2024-01-06T06:29:17;0.45;;;0.45;;
40288;SDS011;28991;52.028;5.526;2024-01-06T06:31:45;0.60;;;0.60;;
40288;SDS011;28991;52.028;5.526;2024-01-06T06:34:11;0.70;;;0.70;;
40288;SDS011;28991;52.028;5.526;2024-01-06T06:36:37;0.70;;;0.70;;
40288;SDS011;28991;52.028;5.526;2024-01-06T06:39:03;0.57;;;0.57;;
40288;SDS011;28991;52.028;5.526;2024-01-06T06:41:29;0.60;;;0.60;;
40288;SDS011;28991;52.028;5.526;2024-01-06T06:43:55;0.55;;;0.55;;
40288;SDS011;28991;52.028;5.526;2024-01-06T06:46:22;0.80;;;0.60;;
40288;SDS011;28991;52.028;5.526;2024-01-06T06:48:48;0.60;;;0.60;;
40288;SDS011;28991;52.028;5.526;2024-01-06T06:51:15;0.70;;;0.70;;
40288;SDS011;28991;52.028;5.526;2024-01-06T06:53:41;0.88;;;0.88;;
40288;SDS011;28991;52.028;5.526;2024-01-06T06:56:06;0.90;;;0.90;;
40288;SDS011;28991;52.028;5.526;2024-01-06T06:58:32;0.80;;;0.80;;
40288;SDS011;28991;52.028;5.526;2024-01-06T07:00:58;0.60;;;0.60;;
40288;SDS011;28991;52.028;5.526;2024-01-06T07:03:23;0.65;;;0.57;;
40288;SDS011;28991;52.028;5.526;2024-01-06T07:05:49;0.60;;;0.60;;
40288;SDS011;28991;52.028;5.526;2024-01-06T07:08:15;1.60;;;0.88;;
40288;SDS011;28991;52.028;5.526;2024-01-06T07:10:40;0.80;;;0.80;;
40288;SDS011;28991;52.028;5.526;2024-01-06T07:13:06;0.60;;;0.60;;
40288;SDS011;28991;52.028;5.526;2024-01-06T07:15:32;0.80;;;0.80;;
40288;SDS011;28991;52.028;5.526;2024-01-06T07:17:57;0.60;;;0.60;;
40288;SDS011;28991;52.028;5.526;2024-01-06T07:20:23;0.70;;;0.70;;
40288;SDS011;28991;52.028;5.526;2024-01-06T07:22:48;0.60;;;0.60;;
40288;SDS011;28991;52.028;5.526;2024-01-06T07:25:14;1.27;;;0.60;;
40288;SDS011;28991;52.028;5.526;2024-01-06T07:27:40;0.98;;;0.88;;
40288;SDS011;28991;52.028;5.526;2024-01-06T07:30:06;1.02;;;0.90;;
40288;SDS011;28991;52.028;5.526;2024-01-06T07:32:34;0.70;;;0.70;;
40288;SDS011;28991;52.028;5.526;2024-01-06T07:35:00;0.80;;;0.80;;
40288;SDS011;28991;52.028;5.526;2024-01-06T07:37:25;0.93;;;0.70;;
40288;SDS011;28991;52.028;5.526;2024-01-06T07:39:51;1.13;;;0.75;;
40288;SDS011;28991;52.028;5.526;2024-01-06T07:42:17;1.33;;;0.80;;
40288;SDS011;28991;52.028;5.526;2024-01-06T07:44:43;0.50;;;0.50;;
40288;SDS011;28991;52.028;5.526;2024-01-06T07:47:09;0.70;;;0.70;;
40288;SDS011;28991;52.028;5.526;2024-01-06T07:49:35;0.88;;;0.70;;
40288;SDS011;28991;52.028;5.526;2024-01-06T07:52:00;0.80;;;0.77;;
40288;SDS011;28991;52.028;5.526;2024-01-06T07:54:26;0.70;;;0.70;;
40288;SDS011;28991;52.028;5.526;2024-01-06T07:56:52;0.70;;;0.70;;
40288;SDS011;28991;52.028;5.526;2024-01-06T07:59:18;0.77;;;0.77;;
40288;SDS011;28991;52.028;5.526;2024-01-06T08:01:43;0.60;;;0.60;;
40288;SDS011;28991;52.028;5.526;2024-01-06T08:04:09;0.90;;;0.70;;
40288;SDS011;28991;52.028;5.526;2024-01-06T08:06:34;0.60;;;0.60;;
40288;SDS011;28991;52.028;5.526;2024-01-06T08:09:00;1.00;;;0.90;;
40288;SDS011;28991;52.028;5.526;2024-01-06T08:11:26;0.93;;;0.88;;
40288;SDS011;28991;52.028;5.526;2024-01-06T08:13:51;0.70;;;0.70;;
40288;SDS011;28991;52.028;5.526;2024-01-06T08:16:17;1.25;;;0.60;;
40288;SDS011;28991;52.028;5.526;2024-01-06T08:18:43;0.88;;;0.70;;
40288;SDS011;28991;52.028;5.526;2024-01-06T08:21:10;0.70;;;0.70;;
40288;SDS011;28991;52.028;5.526;2024-01-06T08:23:35;0.85;;;0.70;;
40288;SDS011;28991;52.028;5.526;2024-01-06T08:26:01;0.63;;;0.63;;
40288;SDS011;28991;52.028;5.526;2024-01-06T08:28:27;1.15;;;0.70;;
40288;SDS011;28991;52.028;5.526;2024-01-06T08:30:52;0.60;;;0.60;;
40288;SDS011;28991;52.028;5.526;2024-01-06T08:33:18;0.80;;;0.70;;
40288;SDS011;28991;52.028;5.526;2024-01-06T08:35:44;0.47;;;0.47;;
40288;SDS011;28991;52.028;5.526;2024-01-06T08:38:09;0.60;;;0.60;;
40288;SDS011;28991;52.028;5.526;2024-01-06T08:40:35;0.63;;;0.63;;
40288;SDS011;28991;52.028;5.526;2024-01-06T08:43:01;1.10;;;0.82;;
40288;SDS011;28991;52.028;5.526;2024-01-06T08:45:27;0.77;;;0.77;;
40288;SDS011;28991;52.028;5.526;2024-01-06T08:47:53;0.60;;;0.60;;
40288;SDS011;28991;52.028;5.526;2024-01-06T08:50:19;1.02;;;0.90;;
40288;SDS011;28991;52.028;5.526;2024-01-06T08:52:44;1.45;;;0.80;;
40288;SDS011;28991;52.028;5.526;2024-01-06T08:55:10;0.70;;;0.70;;
40288;SDS011;28991;52.028;5.526;2024-01-06T08:57:35;0.80;;;0.60;;
40288;SDS011;28991;52.028;5.526;2024-01-06T09:00:02;0.70;;;0.70;;
40288;SDS011;28991;52.028;5.526;2024-01-06T09:02:29;1.00;;;0.77;;
40288;SDS011;28991;52.028;5.526;2024-01-06T09:04:54;0.82;;;0.65;;
40288;SDS011;28991;52.028;5.526;2024-01-06T09:07:20;1.05;;;0.90;;
40288;SDS011;28991;52.028;5.526;2024-01-06T09:09:45;1.85;;;0.65;;
40288;SDS011;28991;52.028;5.526;2024-01-06T09:12:11;0.60;;;0.60;;
40288;SDS011;28991;52.028;5.526;2024-01-06T09:14:36;0.70;;;0.70;;
40288;SDS011;28991;52.028;5.526;2024-01-06T09:17:02;0.80;;;0.80;;
40288;SDS011;28991;52.028;5.526;2024-01-06T09:19:29;0.80;;;0.80;;
40288;SDS011;28991;52.028;5.526;2024-01-06T09:21:55;0.68;;;0.68;;
40288;SDS011;28991;52.028;5.526;2024-01-06T09:24:24;0.90;;;0.80;;
40288;SDS011;28991;52.028;5.526;2024-01-06T09:26:49;0.90;;;0.88;;
40288;SDS011;28991;52.028;5.526;2024-01-06T09:29:16;0.90;;;0.82;;
40288;SDS011;28991;52.028;5.526;2024-01-06T09:31:42;0.80;;;0.80;;
40288;SDS011;28991;52.028;5.526;2024-01-06T09:34:11;1.20;;;1.10;;
40288;SDS011;28991;52.028;5.526;2024-01-06T09:36:37;0.73;;;0.73;;
40288;SDS011;28991;52.028;5.526;2024-01-06T09:39:03;0.80;;;0.80;;
40288;SDS011;28991;52.028;5.526;2024-01-06T09:41:29;1.15;;;1.00;;
40288;SDS011;28991;52.028;5.526;2024-01-06T09:43:56;0.75;;;0.75;;
40288;SDS011;28991;52.028;5.526;2024-01-06T09:46:23;0.80;;;0.80;;
40288;SDS011;28991;52.028;5.526;2024-01-06T09:48:51;0.68;;;0.68;;
40288;SDS011;28991;52.028;5.526;2024-01-06T09:51:20;1.02;;;0.95;;
40288;SDS011;28991;52.028;5.526;2024-01-06T09:54:00;0.80;;;0.80;;
40288;SDS011;28991;52.028;5.526;2024-01-06T09:56:28;0.82;;;0.82;;
40288;SDS011;28991;52.028;5.526;2024-01-06T09:58:54;1.08;;;1.02;;
40288;SDS011;28991;52.028;5.526;2024-01-06T10:01:20;0.80;;;0.80;;
40288;SDS011;28991;52.028;5.526;2024-01-06T10:03:47;0.80;;;0.80;;
40288;SDS011;28991;52.028;5.526;2024-01-06T10:06:13;0.80;;;0.80;;
40288;SDS011;28991;52.028;5.526;2024-01-06T10:08:39;0.82;;;0.80;;
40288;SDS011;28991;52.028;5.526;2024-01-06T10:11:07;0.70;;;0.65;;
40288;SDS011;28991;52.028;5.526;2024-01-06T10:13:33;0.77;;;0.77;;
40288;SDS011;28991;52.028;5.526;2024-01-06T10:15:59;0.77;;;0.77;;
40288;SDS011;28991;52.028;5.526;2024-01-06T10:18:25;0.80;;;0.80;;
40288;SDS011;28991;52.028;5.526;2024-01-06T10:20:52;0.95;;;0.88;;
40288;SDS011;28991;52.028;5.526;2024-01-06T10:23:18;1.05;;;0.88;;
40288;SDS011;28991;52.028;5.526;2024-01-06T10:25:44;0.80;;;0.80;;
40288;SDS011;28991;52.028;5.526;2024-01-06T10:28:12;1.02;;;0.75;;
40288;SDS011;28991;52.028;5.526;2024-01-06T10:30:40;1.60;;;1.50;;
40288;SDS011;28991;52.028;5.526;2024-01-06T10:33:08;1.20;;;1.10;;
40288;SDS011;28991;52.028;5.526;2024-01-06T10:35:35;0.60;;;0.60;;
40288;SDS011;28991;52.028;5.526;2024-01-06T10:38:01;1.83;;;0.93;;
40288;SDS011;28991;52.028;5.526;2024-01-06T10:40:28;0.85;;;0.85;;
40288;SDS011;28991;52.028;5.526;2024-01-06T10:42:54;1.10;;;1.00;;
40288;SDS011;28991;52.028;5.526;2024-01-06T10:45:23;1.85;;;1.73;;
40288;SDS011;28991;52.028;5.526;2024-01-06T10:47:49;1.23;;;1.15;;
40288;SDS011;28991;52.028;5.526;2024-01-06T10:50:17;1.15;;;1.05;;
40288;SDS011;28991;52.028;5.526;2024-01-06T10:52:42;1.25;;;1.15;;
40288;SDS011;28991;52.028;5.526;2024-01-06T10:55:09;0.80;;;0.80;;
40288;SDS011;28991;52.028;5.526;2024-01-06T10:57:36;0.90;;;0.80;;
40288;SDS011;28991;52.028;5.526;2024-01-06T11:00:03;1.23;;;1.13;;
40288;SDS011;28991;52.028;5.526;2024-01-06T11:02:30;1.02;;;0.80;;
40288;SDS011;28991;52.028;5.526;2024-01-06T11:04:56;1.65;;;1.10;;
40288;SDS011;28991;52.028;5.526;2024-01-06T11:07:23;0.90;;;0.85;;
40288;SDS011;28991;52.028;5.526;2024-01-06T11:09:52;1.33;;;1.23;;
40288;SDS011;28991;52.028;5.526;2024-01-06T11:12:30;1.42;;;1.33;;
40288;SDS011;28991;52.028;5.526;2024-01-06T11:14:56;1.35;;;1.23;;
40288;SDS011;28991;52.028;5.526;2024-01-06T11:18:07;1.23;;;1.13;;
40288;SDS011;28991;52.028;5.526;2024-01-06T11:20:18;1.30;;;1.20;;
40288;SDS011;28991;52.028;5.526;2024-01-06T11:22:48;1.10;;;0.82;;
40288;SDS011;28991;52.028;5.526;2024-01-06T11:25:15;1.50;;;1.10;;
40288;SDS011;28991;52.028;5.526;2024-01-06T11:27:43;1.10;;;1.00;;
40288;SDS011;28991;52.028;5.526;2024-01-06T11:30:22;1.30;;;1.10;;
40288;SDS011;28991;52.028;5.526;2024-01-06T11:32:55;1.45;;;1.08;;
40288;SDS011;28991;52.028;5.526;2024-01-06T11:35:25;0.90;;;0.80;;
40288;SDS011;28991;52.028;5.526;2024-01-06T11:37:55;1.50;;;1.17;;
40288;SDS011;28991;52.028;5.526;2024-01-06T11:43:00;1.13;;;1.00;;
40288;SDS011;28991;52.028;5.526;2024-01-06T11:45:37;1.15;;;0.93;;
40288;SDS011;28991;52.028;5.526;2024-01-06T11:48:06;1.20;;;1.10;;
40288;SDS011;28991;52.028;5.526;2024-01-06T11:50:34;1.30;;;1.20;;
40288;SDS011;28991;52.028;5.526;2024-01-06T11:53:01;1.33;;;1.20;;
40288;SDS011;28991;52.028;5.526;2024-01-06T11:55:28;0.98;;;0.90;;
40288;SDS011;28991;52.028;5.526;2024-01-06T11:57:54;1.17;;;0.90;;
40288;SDS011;28991;52.028;5.526;2024-01-06T12:00:21;1.00;;;0.90;;
40288;SDS011;28991;52.028;5.526;2024-01-06T12:02:47;1.02;;;1.02;;
40288;SDS011;28991;52.028;5.526;2024-01-06T12:05:18;0.70;;;0.70;;
40288;SDS011;28991;52.028;5.526;2024-01-06T12:07:52;0.73;;;0.73;;
40288;SDS011;28991;52.028;5.526;2024-01-06T12:10:22;0.68;;;0.57;;
40288;SDS011;28991;52.028;5.526;2024-01-06T12:12:55;1.13;;;0.80;;
40288;SDS011;28991;52.028;5.526;2024-01-06T12:15:23;0.70;;;0.52;;
40288;SDS011;28991;52.028;5.526;2024-01-06T12:17:49;0.57;;;0.57;;
40288;SDS011;28991;52.028;5.526;2024-01-06T12:20:15;0.60;;;0.60;;
40288;SDS011;28991;52.028;5.526;2024-01-06T12:22:41;0.60;;;0.60;;
40288;SDS011;28991;52.028;5.526;2024-01-06T12:25:07;1.13;;;0.77;;
40288;SDS011;28991;52.028;5.526;2024-01-06T12:27:34;1.25;;;0.80;;
40288;SDS011;28991;52.028;5.526;2024-01-06T12:29:59;0.80;;;0.80;;
40288;SDS011;28991;52.028;5.526;2024-01-06T12:32:25;0.82;;;0.82;;
40288;SDS011;28991;52.028;5.526;2024-01-06T12:34:51;0.50;;;0.50;;
40288;SDS011;28991;52.028;5.526;2024-01-06T12:37:17;0.60;;;0.60;;
40288;SDS011;28991;52.028;5.526;2024-01-06T12:39:42;1.17;;;0.90;;
40288;SDS011;28991;52.028;5.526;2024-01-06T12:42:10;0.77;;;0.77;;
40288;SDS011;28991;52.028;5.526;2024-01-06T12:44:36;0.50;;;0.50;;
40288;SDS011;28991;52.028;5.526;2024-01-06T12:47:03;0.95;;;0.63;;
40288;SDS011;28991;52.028;5.526;2024-01-06T12:49:29;0.77;;;0.77;;
40288;SDS011;28991;52.028;5.526;2024-01-06T12:51:55;0.80;;;0.80;;
40288;SDS011;28991;52.028;5.526;2024-01-06T12:54:21;0.70;;;0.70;;
40288;SDS011;28991;52.028;5.526;2024-01-06T12:56:46;0.93;;;0.80;;
40288;SDS011;28991;52.028;5.526;2024-01-06T12:59:12;0.70;;;0.50;;
40288;SDS011;28991;52.028;5.526;2024-01-06T13:01:38;1.65;;;0.70;;
40288;SDS011;28991;52.028;5.526;2024-01-06T13:04:04;0.80;;;0.80;;
40288;SDS011;28991;52.028;5.526;2024-01-06T13:06:29;0.77;;;0.77;;
40288;SDS011;28991;52.028;5.526;2024-01-06T13:08:55;0.70;;;0.70;;
40288;SDS011;28991;52.028;5.526;2024-01-06T13:11:21;0.73;;;0.70;;
40288;SDS011;28991;52.028;5.526;2024-01-06T13:13:47;0.95;;;0.70;;
40288;SDS011;28991;52.028;5.526;2024-01-06T13:16:12;0.75;;;0.75;;
40288;SDS011;28991;52.028;5.526;2024-01-06T13:18:38;1.48;;;0.80;;
40288;SDS011;28991;52.028;5.526;2024-01-06T13:21:04;0.70;;;0.70;;
40288;SDS011;28991;52.028;5.526;2024-01-06T13:23:29;0.82;;;0.70;;
40288;SDS011;28991;52.028;5.526;2024-01-06T13:25:55;0.70;;;0.70;;
40288;SDS011;28991;52.028;5.526;2024-01-06T13:28:22;0.85;;;0.70;;
40288;SDS011;28991;52.028;5.526;2024-01-06T13:30:49;1.33;;;0.70;;
40288;SDS011;28991;52.028;5.526;2024-01-06T13:33:15;0.73;;;0.70;;
40288;SDS011;28991;52.028;5.526;2024-01-06T13:35:41;0.70;;;0.70;;
40288;SDS011;28991;52.028;5.526;2024-01-06T13:38:06;0.63;;;0.57;;
40288;SDS011;28991;52.028;5.526;2024-01-06T13:40:33;0.68;;;0.68;;
40288;SDS011;28991;52.028;5.526;2024-01-06T13:42:59;0.77;;;0.68;;
40288;SDS011;28991;52.028;5.526;2024-01-06T13:45:25;0.85;;;0.80;;
40288;SDS011;28991;52.028;5.526;2024-01-06T13:47:51;0.70;;;0.70;;
40288;SDS011;28991;52.028;5.526;2024-01-06T13:50:18;0.68;;;0.60;;
40288;SDS011;28991;52.028;5.526;2024-01-06T13:52:44;0.60;;;0.60;;
40288;SDS011;28991;52.028;5.526;2024-01-06T13:55:10;1.60;;;0.77;;
40288;SDS011;28991;52.028;5.526;2024-01-06T13:57:36;0.70;;;0.70;;
40288;SDS011;28991;52.028;5.526;2024-01-06T14:00:06;1.20;;;0.95;;
40288;SDS011;28991;52.028;5.526;2024-01-06T14:02:33;1.13;;;1.02;;
40288;SDS011;28991;52.028;5.526;2024-01-06T14:04:59;0.60;;;0.60;;
40288;SDS011;28991;52.028;5.526;2024-01-06T14:07:24;0.70;;;0.70;;
40288;SDS011;28991;52.028;5.526;2024-01-06T14:09:50;0.75;;;0.70;;
40288;SDS011;28991;52.028;5.526;2024-01-06T14:12:16;0.98;;;0.88;;
40288;SDS011;28991;52.028;5.526;2024-01-06T14:14:41;1.00;;;0.90;;
40288;SDS011;28991;52.028;5.526;2024-01-06T14:17:07;1.00;;;0.80;;
40288;SDS011;28991;52.028;5.526;2024-01-06T14:19:33;0.70;;;0.70;;
40288;SDS011;28991;52.028;5.526;2024-01-06T14:21:59;0.90;;;0.77;;
40288;SDS011;28991;52.028;5.526;2024-01-06T14:24:24;1.00;;;0.90;;
40288;SDS011;28991;52.028;5.526;2024-01-06T14:26:50;1.13;;;0.80;;
40288;SDS011;28991;52.028;5.526;2024-01-06T14:29:18;2.45;;;0.95;;
40288;SDS011;28991;52.028;5.526;2024-01-06T14:31:44;0.80;;;0.80;;
40288;SDS011;28991;52.028;5.526;2024-01-06T14:34:09;1.58;;;0.90;;
40288;SDS011;28991;52.028;5.526;2024-01-06T14:36:35;1.00;;;0.88;;
40288;SDS011;28991;52.028;5.526;2024-01-06T14:39:00;1.35;;;1.00;;
40288;SDS011;28991;52.028;5.526;2024-01-06T14:41:26;1.13;;;0.70;;
40288;SDS011;28991;52.028;5.526;2024-01-06T14:43:52;1.25;;;1.15;;